Time;durP1;ratioP1;P1;durP2;ratioP2;P2;SDS_P1;SDS_P2;PMS_P1;PMS_P2;Temp;Humidity;BMP_temperature;BMP_pressure;BME280_temperature;BME280_humidity;BME280_pressure;Samples;Min_cycle;Max_cycle;Signal;HPM_P1;HPM_P2
2023/03/02 00:02:07;;;;;;;9.57;5.15;;;;;;;1.94;55.92;102155.72;3548327;40;20085;-65
2023/03/02 00:04:44;;;;;;;7.60;5.38;;;;;;;1.93;56.83;102169.84;3545762;40;20296;-65
2023/03/02 00:07:18;;;;;;;9.25;5.95;;;;;;;1.91;57.42;102161.03;3549907;40;20062;-65
2023/03/02 00:09:44;;;;;;;7.70;5.57;;;;;;;1.81;57.46;102146.06;3551929;40;20072;-66
2023/03/02 00:12:12;;;;;;;7.80;5.20;;;;;;;1.93;57.12;102167.19;3552973;40;20074;-66
2023/03/02 00:14:38;;;;;;;8.73;5.25;;;;;;;1.96;57.65;102164.53;3554941;40;20058;-66
2023/03/02 00:17:06;;;;;;;10.68;5.60;;;;;;;1.97;56.69;102155.72;3553037;40;20150;-65
2023/03/02 00:19:32;;;;;;;9.13;5.40;;;;;;;1.96;56.85;102159.22;3552950;40;20376;-66
2023/03/02 00:21:58;;;;;;;7.75;5.47;;;;;;;1.97;57.34;102166.31;3554813;40;20058;-66
2023/03/02 00:24:24;;;;;;;8.52;5.65;;;;;;;1.97;57.04;102155.72;3553883;40;20049;-65
2023/03/02 00:26:49;;;;;;;9.50;5.68;;;;;;;1.98;57.21;102154.81;3552194;40;20439;-66
2023/03/02 00:29:15;;;;;;;7.60;5.20;;;;;;;1.51;56.27;102086.97;3550887;40;20061;-66
2023/03/02 00:31:40;;;;;;;7.95;5.38;;;;;;;1.94;56.94;102154.84;3557353;40;20058;-66
2023/03/02 00:34:06;;;;;;;8.65;5.57;;;;;;;1.97;56.95;102168.09;3552338;40;20061;-65
2023/03/02 00:36:32;;;;;;;7.15;5.10;;;;;;;1.95;56.43;102168.09;3549850;40;20050;-66
2023/03/02 00:38:57;;;;;;;9.07;5.30;;;;;;;1.95;56.96;102165.44;3552879;40;20050;-66
2023/03/02 00:41:23;;;;;;;14.13;7.78;;;;;;;1.95;56.42;102173.38;3552115;40;20057;-65
2023/03/02 00:43:50;;;;;;;17.40;9.38;;;;;;;1.69;57.22;102130.22;3552975;40;20057;-66
2023/03/02 00:46:21;;;;;;;11.45;6.72;;;;;;;1.88;56.80;102165.47;3547921;40;20061;-66
2023/03/02 00:48:47;;;;;;;12.10;6.03;;;;;;;1.54;56.58;102121.41;3555090;40;20188;-66
2023/03/02 00:51:13;;;;;;;10.20;6.60;;;;;;;1.88;56.66;102166.34;3549880;40;20064;-66
2023/03/02 00:53:40;;;;;;;8.32;5.45;;;;;;;1.89;57.04;102168.09;3551589;40;20089;-66
2023/03/02 00:56:07;;;;;;;8.52;5.45;;;;;;;1.91;56.65;102170.78;3551845;40;20079;-66
2023/03/02 00:58:33;;;;;;;8.05;5.65;;;;;;;1.90;57.17;102164.56;3557098;40;20282;-66
2023/03/02 01:01:11;;;;;;;7.43;5.18;;;;;;;1.93;56.19;102172.50;3554386;40;20041;-66
2023/03/02 01:03:37;;;;;;;7.22;5.35;;;;;;;1.94;56.80;102166.34;3551114;40;20109;-67
2023/03/02 01:06:05;;;;;;;9.25;6.00;;;;;;;1.81;56.74;102143.41;3555019;40;20054;-65
2023/03/02 01:08:31;;;;;;;7.43;5.53;;;;;;;1.93;57.42;102159.25;3553553;40;20375;-66
2023/03/02 01:11:00;;;;;;;9.43;5.68;;;;;;;1.94;56.60;102153.06;3553997;40;20080;-66
2023/03/02 01:13:26;;;;;;;9.45;5.97;;;;;;;1.84;56.24;102135.44;3552170;40;20089;-66
2023/03/02 01:16:03;;;;;;;8.32;5.68;;;;;;;1.76;57.23;102118.69;3553495;40;20050;-66
2023/03/02 01:18:29;;;;;;;9.65;5.53;;;;;;;1.61;57.33;102090.47;3551152;40;20053;-66
2023/03/02 01:21:04;;;;;;;10.63;5.88;;;;;;;1.94;56.85;102145.13;3560310;40;20057;-65
2023/03/02 01:23:30;;;;;;;10.38;6.03;;;;;;;1.93;56.40;102135.38;3552971;40;20062;-65
2023/03/02 01:25:55;;;;;;;9.27;5.63;;;;;;;1.95;56.09;102133.63;3549194;40;20092;-66
2023/03/02 01:28:21;;;;;;;8.88;5.75;;;;;;;1.92;56.40;102136.28;3553273;40;20097;-65
2023/03/02 01:30:47;;;;;;;8.13;5.88;;;;;;;1.89;56.08;102136.28;3551968;40;20076;-66
2023/03/02 01:33:13;;;;;;;10.27;6.07;;;;;;;1.86;57.32;102133.66;3550557;40;20056;-66
2023/03/02 01:35:39;;;;;;;9.35;5.80;;;;;;;1.85;56.55;102138.09;3552587;40;20058;-67
2023/03/02 01:38:04;;;;;;;8.90;5.38;;;;;;;1.82;57.05;102140.75;3553079;40;20395;-66
2023/03/02 01:40:30;;;;;;;9.10;5.50;;;;;;;1.79;57.39;102127.50;3552108;40;20124;-66
2023/03/02 01:43:04;;;;;;;8.13;5.45;;;;;;;1.75;56.59;102132.84;3552619;40;20057;-65
2023/03/02 01:45:51;;;;;;;9.57;5.80;;;;;;;1.71;57.52;102117.81;3552383;40;20057;-68
2023/03/02 01:48:27;;;;;;;10.10;5.80;;;;;;;1.72;57.90;102128.44;3550928;40;20080;-66
2023/03/02 01:50:54;;;;;;;9.07;6.10;;;;;;;1.72;56.58;102128.44;3550604;40;20374;-66
2023/03/02 01:53:23;;;;;;;9.48;5.35;;;;;;;1.72;57.44;102130.19;3556233;40;20057;-67
2023/03/02 01:55:49;;;;;;;8.55;6.10;;;;;;;1.72;57.58;102124.91;3558772;40;20062;-66
2023/03/02 01:58:17;;;;;;;10.18;5.38;;;;;;;1.65;58.05;102123.13;3552590;40;20388;-66
2023/03/02 02:00:44;;;;;;;9.68;6.22;;;;;;;1.69;57.52;102125.78;3556653;40;20073;-67
2023/03/02 02:03:19;;;;;;;9.38;6.03;;;;;;;1.68;58.16;102117.81;3551119;40;20048;-66
2023/03/02 02:06:00;;;;;;;9.77;5.28;;;;;;;1.31;57.88;102067.66;3551715;40;21177;-66
2023/03/02 02:08:27;;;;;;;9.05;5.57;;;;;;;1.67;58.46;102118.72;3555343;40;20057;-66
2023/03/02 02:10:54;;;;;;;8.00;5.38;;;;;;;1.57;57.40;102101.97;3551821;40;20112;-67
2023/03/02 02:13:19;;;;;;;7.22;5.40;;;;;;;1.66;58.80;102119.63;3551929;40;20067;-65
2023/03/02 02:15:45;;;;;;;12.15;6.22;;;;;;;1.39;57.98;102076.44;3551524;40;20073;-66
2023/03/02 02:18:11;;;;;;;10.43;5.97;;;;;;;1.67;58.82;102118.72;3551829;40;20049;-67
2023/03/02 02:20:44;;;;;;;9.25;6.10;;;;;;;1.65;57.84;102118.75;3550189;40;20388;-67
2023/03/02 02:23:47;;;;;;;10.90;6.05;;;;;;;1.61;58.94;102114.31;3546816;40;20065;-66
2023/03/02 02:26:30;;;;;;;8.73;5.65;;;;;;;1.59;57.92;102095.78;3547169;40;20064;-66
2023/03/02 02:29:31;;;;;;;10.98;5.60;;;;;;;1.63;58.63;102110.78;3546837;40;20080;-67
2023/03/02 02:32:09;;;;;;;11.13;6.63;;;;;;;1.64;58.61;102109.00;3544463;40;20061;-66
2023/03/02 02:34:55;;;;;;;9.13;5.85;;;;;;;1.65;59.87;102101.94;3545840;40;20064;-66
2023/03/02 02:37:53;;;;;;;9.48;6.57;;;;;;;1.63;58.76;102107.25;3548158;40;20050;-66
2023/03/02 02:40:46;;;;;;;11.05;6.43;;;;;;;1.58;59.22;102099.31;3549072;40;20132;-66
2023/03/02 02:43:17;;;;;;;9.17;5.93;;;;;;;1.54;59.99;102097.56;3547766;40;20057;-66
2023/03/02 02:45:46;;;;;;;10.25;6.50;;;;;;;1.50;60.17;102090.53;3547401;40;20136;-66
2023/03/02 02:48:22;;;;;;;9.45;6.25;;;;;;;1.46;60.08;102093.19;3547829;40;20069;-66
2023/03/02 02:50:47;;;;;;;11.70;6.75;;;;;;;1.40;59.41;102080.88;3547187;40;20077;-66
2023/03/02 02:53:28;;;;;;;8.32;5.78;;;;;;;1.43;59.89;102090.53;3546163;40;20068;-66
2023/03/02 02:55:58;;;;;;;9.93;6.88;;;;;;;1.36;59.66;102084.38;3546940;40;20050;-66
2023/03/02 02:58:23;;;;;;;9.57;6.93;;;;;;;1.36;59.83;102082.66;3546894;40;20056;-65
2023/03/02 03:00:50;;;;;;;10.70;7.53;;;;;;;1.38;60.87;102085.28;3547470;40;20058;-65
2023/03/02 03:03:29;;;;;;;12.25;7.28;;;;;;;1.35;60.60;102094.09;3544998;40;20186;-65
2023/03/02 03:06:01;;;;;;;14.10;7.15;;;;;;;1.36;61.86;102097.63;3545886;40;20056;-65
2023/03/02 03:08:45;;;;;;;11.90;8.15;;;;;;;1.35;61.08;102093.22;3545309;40;20054;-65
2023/03/02 03:11:22;;;;;;;12.95;7.82;;;;;;;1.35;62.09;102095.88;3546934;40;20061;-66
2023/03/02 03:13:59;;;;;;;13.82;8.60;;;;;;;1.33;62.77;102095.00;3548333;40;20061;-66
2023/03/02 03:16:29;;;;;;;14.23;8.90;;;;;;;1.04;62.76;102043.00;3549855;40;20361;-66
2023/03/02 03:19:07;;;;;;;15.65;9.10;;;;;;;1.31;63.44;102091.50;3548083;40;20400;-65
2023/03/02 03:21:34;;;;;;;14.90;9.48;;;;;;;1.27;63.04;102089.72;3549194;40;20050;-67
2023/03/02 03:23:59;;;;;;;17.85;10.43;;;;;;;1.26;64.17;102094.13;3550418;40;20065;-66
2023/03/02 03:26:25;;;;;;;17.90;10.63;;;;;;;1.25;64.51;102092.38;3548533;40;20057;-66
2023/03/02 03:28:50;;;;;;;18.63;11.10;;;;;;;1.24;64.73;102084.44;3546249;40;20056;-66
2023/03/02 03:31:16;;;;;;;16.77;10.45;;;;;;;1.22;65.13;102084.44;3545019;40;20064;-65
2023/03/02 03:33:42;;;;;;;20.70;11.60;;;;;;;0.83;65.26;102020.13;3550088;40;20053;-66
2023/03/02 03:36:08;;;;;;;19.88;11.95;;;;;;;1.18;64.82;102074.75;3549664;40;20112;-66
2023/03/02 03:38:34;;;;;;;20.63;12.57;;;;;;;1.18;65.42;102071.22;3546798;40;20137;-66
2023/03/02 03:40:59;;;;;;;21.77;13.50;;;;;;;1.15;65.82;102080.94;3546202;40;20411;-65
2023/03/02 03:43:25;;;;;;;22.98;13.57;;;;;;;1.14;66.35;102081.84;3547776;40;20057;-65
2023/03/02 03:45:51;;;;;;;23.08;13.88;;;;;;;1.07;67.45;102069.47;3548786;40;20060;-65
2023/03/02 03:48:17;;;;;;;26.02;14.93;;;;;;;1.05;67.19;102071.25;3546901;40;20158;-65
2023/03/02 03:50:44;;;;;;;26.67;15.48;;;;;;;1.12;66.82;102083.59;3548472;40;20093;-66
2023/03/02 03:53:09;;;;;;;27.58;15.48;;;;;;;1.12;68.58;102085.38;3546684;40;20149;-66
2023/03/02 03:55:35;;;;;;;26.05;16.15;;;;;;;1.11;68.65;102087.13;3544593;40;20054;-67
2023/03/02 03:58:01;;;;;;;28.85;16.50;;;;;;;1.08;68.02;102092.44;3545193;40;20073;-67
2023/03/02 04:00:26;;;;;;;26.48;16.90;;;;;;;1.08;68.84;102092.44;3544599;40;20053;-66
2023/03/02 04:02:52;;;;;;;27.83;16.55;;;;;;;1.07;69.06;102092.41;3543746;40;20372;-67
2023/03/02 04:05:18;;;;;;;29.35;17.08;;;;;;;1.05;69.93;102081.84;3544181;40;20068;-65
2023/03/02 04:07:45;;;;;;;28.83;17.05;;;;;;;0.99;68.88;102071.28;3547133;40;20054;-68
2023/03/02 04:10:11;;;;;;;31.00;18.33;;;;;;;1.08;69.57;102084.50;3545084;40;20109;-66
2023/03/02 04:12:40;;;;;;;31.10;17.98;;;;;;;1.06;68.83;102082.72;3545213;40;20057;-66
2023/03/02 04:15:12;;;;;;;33.55;18.35;;;;;;;1.06;70.34;102091.53;3544533;40;20079;-68
2023/03/02 04:17:38;;;;;;;29.05;17.88;;;;;;;1.06;70.43;102090.66;3544297;40;20058;-67
2023/03/02 04:20:08;;;;;;;29.70;18.17;;;;;;;1.03;69.40;102078.31;3549800;40;20057;-67
2023/03/02 04:22:34;;;;;;;31.63;18.10;;;;;;;1.03;69.67;102085.38;3545486;40;20054;-67
2023/03/02 04:25:00;;;;;;;34.22;19.70;;;;;;;1.02;70.79;102079.22;3549199;40;20163;-66
2023/03/02 04:27:25;;;;;;;29.20;18.25;;;;;;;1.03;70.01;102077.44;3543961;40;20069;-66
2023/03/02 04:29:51;;;;;;;34.15;19.13;;;;;;;1.02;70.13;102080.97;3545964;40;20319;-66
2023/03/02 04:32:18;;;;;;;33.58;19.05;;;;;;;0.99;70.27;102067.75;3549811;40;20046;-66
2023/03/02 04:34:44;;;;;;;32.58;19.48;;;;;;;0.97;69.54;102073.03;3546664;40;20058;-67
2023/03/02 04:37:10;;;;;;;31.35;18.42;;;;;;;0.94;70.78;102073.03;3545902;40;20081;-67
2023/03/02 04:39:35;;;;;;;31.05;18.20;;;;;;;1.01;70.97;102080.06;3549620;40;20057;-66
2023/03/02 04:42:01;;;;;;;33.47;19.80;;;;;;;1.01;71.24;102088.00;3551212;40;20069;-65
2023/03/02 04:44:27;;;;;;;33.53;18.83;;;;;;;0.94;70.39;102073.03;3546108;40;20050;-66
2023/03/02 04:46:53;;;;;;;36.55;19.30;;;;;;;0.84;71.21;102060.72;3548086;40;20296;-66
2023/03/02 04:49:19;;;;;;;32.42;18.45;;;;;;;0.93;71.05;102076.56;3545630;40;20104;-66
2023/03/02 04:51:48;;;;;;;33.10;18.25;;;;;;;0.96;70.77;102078.34;3545503;40;20055;-66
2023/03/02 04:54:24;;;;;;;34.20;19.98;;;;;;;0.93;70.24;102074.81;3545447;40;20125;-66
2023/03/02 04:56:50;;;;;;;33.78;19.70;;;;;;;0.89;70.96;102074.81;3545631;40;20312;-65
2023/03/02 04:59:22;;;;;;;32.10;18.75;;;;;;;0.97;70.24;102082.75;3547330;40;20046;-65
2023/03/02 05:01:49;;;;;;;33.38;18.63;;;;;;;0.88;69.89;102065.09;3547909;40;20050;-65
2023/03/02 05:04:15;;;;;;;31.55;18.25;;;;;;;0.93;71.01;102076.56;3547927;40;20062;-67
2023/03/02 05:06:41;;;;;;;33.78;19.23;;;;;;;0.95;70.21;102080.09;3545488;40;20056;-66
2023/03/02 05:09:07;;;;;;;35.45;19.15;;;;;;;0.60;70.81;102025.47;3545699;40;20065;-66
2023/03/02 05:11:34;;;;;;;32.85;18.02;;;;;;;0.95;69.55;102087.16;3547945;40;20057;-66
2023/03/02 05:14:04;;;;;;;32.42;18.90;;;;;;;0.92;70.44;102091.59;3552066;40;20089;-66
2023/03/02 05:16:34;;;;;;;32.47;18.27;;;;;;;0.88;70.92;102080.97;3548474;40;20054;-66
2023/03/02 05:19:05;;;;;;;31.15;18.20;;;;;;;0.74;70.31;102059.84;3545384;40;20062;-67
2023/03/02 05:21:31;;;;;;;34.55;20.63;;;;;;;0.91;70.48;102088.91;3547536;40;20069;-66
2023/03/02 05:23:57;;;;;;;31.92;19.13;;;;;;;0.80;70.41;102070.44;3547321;40;20166;-66
2023/03/02 05:26:22;;;;;;;35.00;19.35;;;;;;;0.91;70.67;102083.63;3544449;40;20362;-66
2023/03/02 05:28:48;;;;;;;34.63;19.55;;;;;;;0.62;71.22;102042.22;3546977;40;20060;-65
2023/03/02 05:31:42;;;;;;;35.38;19.88;;;;;;;0.88;71.93;102083.63;3543415;40;20048;-65
2023/03/02 05:34:11;;;;;;;33.63;18.85;;;;;;;0.84;71.32;102082.75;3545593;40;20131;-67
2023/03/02 05:36:37;;;;;;;36.28;20.90;;;;;;;0.82;70.91;102086.28;3551287;40;20068;-67
2023/03/02 05:39:05;;;;;;;34.38;19.55;;;;;;;0.83;70.61;102088.06;3549171;40;20111;-66
2023/03/02 05:41:30;;;;;;;33.83;19.60;;;;;;;0.84;71.36;102090.69;3546767;40;20356;-67
2023/03/02 05:43:56;;;;;;;38.35;19.00;;;;;;;0.82;70.56;102083.63;3548831;40;20057;-66
2023/03/02 05:46:22;;;;;;;31.95;19.25;;;;;;;0.82;71.47;102083.63;3545269;40;20065;-67
2023/03/02 05:48:48;;;;;;;33.28;19.85;;;;;;;0.81;71.23;102085.41;3547705;40;20069;-66
2023/03/02 05:51:14;;;;;;;34.10;19.85;;;;;;;0.74;71.20;102069.56;3544767;40;20404;-66
2023/03/02 05:53:40;;;;;;;33.58;20.00;;;;;;;0.59;71.12;102054.56;3544659;40;20104;-67
2023/03/02 05:56:06;;;;;;;32.00;19.58;;;;;;;0.78;71.01;102081.88;3544769;40;20054;-67
2023/03/02 05:58:32;;;;;;;34.75;19.70;;;;;;;0.76;71.74;102081.91;3549086;40;20067;-67
2023/03/02 06:00:58;;;;;;;34.67;20.17;;;;;;;0.76;72.01;102081.00;3545465;40;20058;-66
2023/03/02 06:03:23;;;;;;;37.65;21.00;;;;;;;0.74;71.30;102085.44;3549292;40;20064;-66
2023/03/02 06:05:51;;;;;;;40.20;21.35;;;;;;;0.74;71.58;102081.03;3551190;40;20295;-65
2023/03/02 06:08:20;;;;;;;38.95;20.77;;;;;;;0.69;71.33;102078.34;3548421;40;20050;-67
2023/03/02 06:10:49;;;;;;;39.42;21.58;;;;;;;0.60;71.97;102072.19;3544689;40;21533;-67
2023/03/02 06:13:15;;;;;;;38.35;21.85;;;;;;;0.61;72.22;102064.28;3547703;40;20293;-66
2023/03/02 06:15:41;;;;;;;39.13;21.90;;;;;;;0.64;73.04;102074.84;3544113;40;20046;-67
2023/03/02 06:18:07;;;;;;;37.45;21.58;;;;;;;0.63;72.54;102077.47;3544850;40;20332;-66
2023/03/02 06:20:33;;;;;;;41.00;22.63;;;;;;;0.62;73.23;102086.31;3546460;40;20360;-66
2023/03/02 06:22:58;;;;;;;41.03;22.48;;;;;;;0.62;73.10;102086.31;3546543;40;20058;-65
2023/03/02 06:25:24;;;;;;;41.47;21.17;;;;;;;0.63;73.68;102088.06;3550119;40;20351;-66
2023/03/02 06:27:52;;;;;;;42.58;22.33;;;;;;;0.38;72.79;102044.88;3544749;40;20096;-66
2023/03/02 06:30:23;;;;;;;44.50;23.55;;;;;;;0.33;72.99;102046.66;3550680;40;20065;-68
2023/03/02 06:32:49;;;;;;;40.88;22.58;;;;;;;0.61;73.54;102085.44;3557140;40;20410;-67
2023/03/02 06:35:15;;;;;;;41.92;22.25;;;;;;;0.62;74.29;102096.91;3549208;40;20054;-67
2023/03/02 06:37:42;;;;;;;42.13;22.77;;;;;;;0.64;74.42;102095.16;3553380;40;20049;-69
2023/03/02 06:40:09;;;;;;;42.80;22.17;;;;;;;0.66;74.02;102104.81;3555329;40;20069;-68
2023/03/02 06:42:37;;;;;;;39.92;23.48;;;;;;;0.70;74.44;102100.44;3552357;40;20070;-68
2023/03/02 06:45:05;;;;;;;42.05;24.02;;;;;;;0.48;73.62;102065.16;3553981;40;20049;-68
2023/03/02 06:47:32;;;;;;;44.78;23.60;;;;;;;0.69;73.83;102109.22;3554260;40;20077;-68
2023/03/02 06:49:58;;;;;;;48.75;25.25;;;;;;;0.69;74.47;102104.81;3561911;40;20049;-68
2023/03/02 06:52:24;;;;;;;48.28;24.55;;;;;;;0.71;74.51;102107.47;3554302;40;20057;-68
2023/03/02 06:54:49;;;;;;;46.30;23.65;;;;;;;0.71;73.62;102102.19;3554157;40;20080;-67
2023/03/02 06:57:15;;;;;;;46.40;24.23;;;;;;;0.75;74.58;102103.06;3554468;40;20081;-68
2023/03/02 06:59:40;;;;;;;47.25;23.48;;;;;;;0.76;74.00;102110.09;3552485;40;20057;-68
2023/03/02 07:02:08;;;;;;;48.47;23.75;;;;;;;0.81;73.76;102109.22;3553227;40;20416;-68
2023/03/02 07:04:33;;;;;;;45.95;22.90;;;;;;;0.87;73.90;102105.69;3552623;40;20053;-68
2023/03/02 07:06:59;;;;;;;44.63;23.48;;;;;;;1.01;74.12;102106.56;3552559;40;20058;-68
2023/03/02 07:09:24;;;;;;;47.10;23.92;;;;;;;1.11;73.34;102097.72;3552451;40;20426;-68
2023/03/02 07:11:50;;;;;;;47.88;23.65;;;;;;;1.32;73.65;102106.47;3550877;40;20058;-67
2023/03/02 07:14:16;;;;;;;44.55;22.88;;;;;;;1.48;72.78;102112.63;3556192;40;20307;-68
2023/03/02 07:16:41;;;;;;;43.20;22.48;;;;;;;1.52;71.48;102111.72;3553825;40;20092;-68
2023/03/02 07:19:14;;;;;;;43.53;22.65;;;;;;;1.60;71.85;102118.75;3553057;40;20070;-68
2023/03/02 07:21:40;;;;;;;45.50;23.08;;;;;;;1.65;71.08;102115.19;3551651;40;20400;-68
2023/03/02 07:24:06;;;;;;;42.60;23.27;;;;;;;1.71;71.21;102120.47;3551368;40;20057;-68
2023/03/02 07:26:32;;;;;;;45.15;22.75;;;;;;;1.72;71.05;102117.81;3548385;40;20380;-68
2023/03/02 07:29:00;;;;;;;42.15;22.63;;;;;;;1.76;71.00;102108.09;3552068;40;20072;-68
2023/03/02 07:31:27;;;;;;;43.33;23.27;;;;;;;1.87;70.76;102116.84;3552890;40;20057;-68
2023/03/02 07:33:53;;;;;;;42.63;22.77;;;;;;;1.86;70.40;102094.75;3551496;40;20392;-68
2023/03/02 07:36:18;;;;;;;41.00;21.88;;;;;;;2.09;69.55;102121.19;3549986;40;20058;-68
2023/03/02 07:38:44;;;;;;;42.22;23.20;;;;;;;1.93;68.85;102073.53;3551629;40;20065;-68
2023/03/02 07:41:11;;;;;;;41.03;21.73;;;;;;;2.31;68.17;102118.34;3551964;40;20076;-67
2023/03/02 07:43:37;;;;;;;38.47;20.10;;;;;;;2.50;68.60;102106.72;3552706;40;20077;-68
2023/03/02 07:46:04;;;;;;;38.97;21.42;;;;;;;2.75;67.39;102114.47;3554714;40;20057;-68
2023/03/02 07:48:31;;;;;;;41.13;22.45;;;;;;;2.97;66.29;102116.03;3553138;40;20119;-67
2023/03/02 07:51:04;;;;;;;39.58;20.65;;;;;;;3.26;65.27;102114.88;3550905;40;20049;-68
2023/03/02 07:53:30;;;;;;;40.28;21.67;;;;;;;3.51;64.55;102115.47;3550827;40;20057;-68
2023/03/02 07:55:56;;;;;;;36.88;21.02;;;;;;;3.69;63.91;102109.06;3551192;40;20093;-68
2023/03/02 07:58:23;;;;;;;35.88;21.17;;;;;;;3.85;62.51;102121.25;3553371;40;20087;-69
2023/03/02 08:00:48;;;;;;;39.42;20.75;;;;;;;4.10;61.67;102112.94;3550456;40;20054;-69
2023/03/02 08:03:14;;;;;;;38.97;20.60;;;;;;;4.34;61.14;102115.22;3553816;40;20281;-68
2023/03/02 08:05:40;;;;;;;38.17;20.48;;;;;;;4.48;60.77;102119.47;3552362;40;20058;-68
2023/03/02 08:08:05;;;;;;;34.58;19.40;;;;;;;4.59;59.11;102112.19;3550338;40;20076;-69
2023/03/02 08:10:34;;;;;;;35.55;20.35;;;;;;;4.81;58.43;102115.38;3551585;40;20050;-68
2023/03/02 08:13:00;;;;;;;31.33;17.85;;;;;;;4.93;57.73;102107.16;3550132;40;20072;-68
2023/03/02 08:15:26;;;;;;;32.78;19.20;;;;;;;5.01;57.70;102113.25;3551147;40;20158;-69
2023/03/02 08:17:52;;;;;;;33.85;20.25;;;;;;;5.19;57.10;102114.69;3550087;40;20057;-69
2023/03/02 08:20:17;;;;;;;32.08;19.30;;;;;;;5.42;56.15;102116.00;3550983;40;20066;-69
2023/03/02 08:22:43;;;;;;;33.05;18.42;;;;;;;5.52;55.68;102121.16;3552453;40;20064;-69
2023/03/02 08:25:09;;;;;;;35.17;19.27;;;;;;;5.66;55.40;102120.00;3550527;40;20845;-69
2023/03/02 08:27:35;;;;;;;30.35;18.08;;;;;;;5.58;54.65;102085.47;3551195;40;20065;-69
2023/03/02 08:30:00;;;;;;;33.00;18.15;;;;;;;5.44;54.52;102012.88;3550008;40;20049;-69
2023/03/02 08:32:26;;;;;;;32.25;19.10;;;;;;;6.15;53.84;102111.84;3550967;40;20423;-69
2023/03/02 08:34:52;;;;;;;30.42;17.92;;;;;;;6.39;53.45;102106.84;3550661;40;20376;-68
2023/03/02 08:37:18;;;;;;;29.38;17.20;;;;;;;6.65;52.20;102116.88;3547861;40;20514;-68
2023/03/02 08:39:44;;;;;;;29.38;17.58;;;;;;;6.74;51.40;102106.84;3553632;40;20058;-68
2023/03/02 08:42:10;;;;;;;30.10;17.17;;;;;;;6.90;51.09;102109.13;3550571;40;20062;-68
2023/03/02 08:44:35;;;;;;;32.47;17.98;;;;;;;7.02;50.30;102108.81;3550989;40;20049;-68
2023/03/02 08:47:01;;;;;;;29.92;17.05;;;;;;;7.14;50.25;102108.47;3548327;40;20046;-68
2023/03/02 08:49:26;;;;;;;30.45;17.52;;;;;;;7.15;49.88;102118.25;3550921;40;20084;-68
2023/03/02 08:51:55;;;;;;;31.80;16.60;;;;;;;7.17;50.15;102110.19;3550069;40;20053;-68
2023/03/02 08:54:22;;;;;;;27.05;16.08;;;;;;;7.39;49.35;102115.81;3549067;40;20061;-68
2023/03/02 08:56:49;;;;;;;27.60;16.75;;;;;;;7.64;48.86;102113.31;3551832;40;20057;-68
2023/03/02 08:59:15;;;;;;;26.67;16.02;;;;;;;7.67;47.69;102103.44;3553125;40;20058;-68
2023/03/02 09:01:41;;;;;;;28.90;15.63;;;;;;;7.82;47.20;102103.88;3550626;40;20619;-68
2023/03/02 09:04:09;;;;;;;24.38;15.82;;;;;;;8.00;47.17;102099.78;3548002;40;20073;-68
2023/03/02 09:06:41;;;;;;;24.52;15.95;;;;;;;8.21;47.56;102095.53;3549296;40;20383;-68
2023/03/02 09:09:10;;;;;;;28.20;16.75;;;;;;;8.38;45.92;102101.28;3549795;40;20369;-68
2023/03/02 09:11:36;;;;;;;25.80;15.88;;;;;;;8.45;45.63;102092.13;3552045;40;20062;-68
2023/03/02 09:14:02;;;;;;;24.08;15.48;;;;;;;8.56;45.29;102089.06;3550770;40;20068;-68
2023/03/02 09:16:28;;;;;;;28.48;16.38;;;;;;;8.03;44.80;101992.59;3550543;40;20054;-68
2023/03/02 09:18:54;;;;;;;24.17;14.75;;;;;;;8.65;45.24;102090.59;3549128;40;20065;-68
2023/03/02 09:21:21;;;;;;;26.40;15.98;;;;;;;8.68;44.96;102098.53;3551767;40;20183;-68
2023/03/02 09:23:47;;;;;;;26.23;14.85;;;;;;;8.84;45.15;102102.44;3558612;40;20131;-68
2023/03/02 09:26:12;;;;;;;24.67;14.88;;;;;;;8.95;43.20;102094.91;3549406;40;20062;-68
2023/03/02 09:28:38;;;;;;;24.58;14.50;;;;;;;8.93;43.32;102093.19;3552826;40;20096;-68
2023/03/02 09:31:07;;;;;;;24.15;14.60;;;;;;;8.94;43.31;102101.19;3551829;40;20442;-67
2023/03/02 09:33:33;;;;;;;24.88;14.48;;;;;;;9.09;43.75;102090.84;3554016;40;20095;-67
2023/03/02 09:36:00;;;;;;;25.27;14.45;;;;;;;9.12;42.76;102082.69;3553732;40;20053;-67
2023/03/02 09:38:26;;;;;;;22.33;14.43;;;;;;;9.27;42.99;102092.88;3554822;40;20054;-68
2023/03/02 09:40:57;;;;;;;23.25;13.88;;;;;;;9.35;41.39;102090.78;3551237;40;20057;-69
2023/03/02 09:43:54;;;;;;;20.60;13.13;;;;;;;9.43;41.78;102088.72;3549414;40;20053;-68
2023/03/02 09:46:37;;;;;;;23.30;13.30;;;;;;;9.58;40.92;102097.13;3551843;40;20058;-67
2023/03/02 09:49:40;;;;;;;20.85;13.05;;;;;;;9.70;40.82;102086.78;3551063;40;20385;-68
2023/03/02 09:52:29;;;;;;;19.10;12.75;;;;;;;9.92;40.80;102081.47;3548830;40;20072;-68
2023/03/02 09:55:00;;;;;;;19.08;12.73;;;;;;;10.03;39.46;102072.13;3550716;40;20053;-68
2023/03/02 09:57:37;;;;;;;21.27;12.98;;;;;;;10.17;39.98;102077.81;3550657;40;20394;-68
2023/03/02 10:00:12;;;;;;;19.60;12.98;;;;;;;10.34;39.28;102078.06;3544269;40;20060;-67
2023/03/02 10:02:55;;;;;;;19.05;12.63;;;;;;;10.49;38.74;102079.22;3549892;40;20123;-69
2023/03/02 10:05:28;;;;;;;19.67;12.65;;;;;;;10.62;39.27;102076.91;3551934;40;20092;-67
2023/03/02 10:07:54;;;;;;;21.17;12.15;;;;;;;10.39;37.55;102027.66;3547486;40;20171;-67
2023/03/02 10:10:38;;;;;;;18.60;12.20;;;;;;;10.82;38.00;102073.38;3549914;40;20132;-67
2023/03/02 10:13:32;;;;;;;18.10;12.07;;;;;;;10.88;36.96;102073.13;3552703;40;20053;-68
2023/03/02 10:16:20;;;;;;;17.08;11.18;;;;;;;10.85;36.22;102084.88;3550982;40;20067;-68
2023/03/02 10:19:28;;;;;;;18.05;11.82;;;;;;;10.96;37.15;102080.84;3551389;40;20052;-67
2023/03/02 10:22:14;;;;;;;16.77;10.85;;;;;;;10.99;35.93;102080.72;3546594;40;20065;-68
2023/03/02 10:25:07;;;;;;;18.38;10.30;;;;;;;11.05;35.47;102086.72;3548558;40;20060;-69
2023/03/02 10:27:42;;;;;;;18.33;10.88;;;;;;;11.08;35.48;102074.94;3552039;40;20136;-68
2023/03/02 10:30:32;;;;;;;17.65;11.32;;;;;;;11.22;36.25;102077.88;3551362;40;20064;-68
2023/03/02 10:33:20;;;;;;;16.30;11.25;;;;;;;11.51;37.14;102078.38;3551702;40;20119;-68
2023/03/02 10:35:50;;;;;;;16.00;10.90;;;;;;;11.73;36.09;102073.75;3548980;40;20053;-69
2023/03/02 10:38:20;;;;;;;18.13;11.55;;;;;;;11.96;35.15;102075.41;3552903;40;20054;-68
2023/03/02 10:40:47;;;;;;;16.15;10.85;;;;;;;12.15;34.99;102075.41;3555832;40;20058;-68
2023/03/02 10:43:41;;;;;;;17.88;10.52;;;;;;;12.18;34.12;102075.25;3553003;40;20111;-68
2023/03/02 10:46:10;;;;;;;18.08;10.88;;;;;;;11.73;34.46;102030.66;3555409;40;20415;-69
2023/03/02 10:48:56;;;;;;;16.83;11.20;;;;;;;12.06;34.20;102065.06;3553958;40;20273;-68
2023/03/02 10:51:27;;;;;;;14.35;10.07;;;;;;;12.08;33.48;102057.75;3548416;40;20062;-69
2023/03/02 10:54:22;;;;;;;17.90;10.98;;;;;;;12.13;33.67;102066.50;3550877;40;20059;-69
2023/03/02 10:56:55;;;;;;;16.80;10.68;;;;;;;12.22;34.05;102060.69;3546769;40;20050;-68
2023/03/02 10:59:42;;;;;;;18.42;11.45;;;;;;;12.29;33.74;102062.13;3551676;40;20055;-68
2023/03/02 11:02:17;;;;;;;15.82;10.13;;;;;;;12.28;33.75;102075.69;3551881;40;20062;-68
2023/03/02 11:04:43;;;;;;;15.30;10.88;;;;;;;12.35;33.69;102068.16;3551960;40;20089;-68
2023/03/02 11:07:18;;;;;;;15.60;10.73;;;;;;;12.48;34.18;102061.22;3552732;40;20100;-68
2023/03/02 11:09:59;;;;;;;17.02;10.27;;;;;;;12.47;33.17;102059.47;3550047;40;20060;-68
2023/03/02 11:12:25;;;;;;;16.40;10.73;;;;;;;12.53;33.18;102048.38;3552267;40;20065;-68
2023/03/02 11:15:15;;;;;;;18.00;10.18;;;;;;;12.62;33.65;102030.81;3551689;40;20057;-69
2023/03/02 11:17:47;;;;;;;15.80;11.05;;;;;;;12.97;33.50;102053.28;3552925;40;20118;-67
2023/03/02 11:20:25;;;;;;;15.52;10.50;;;;;;;13.11;33.81;102050.75;3552591;40;20061;-68
2023/03/02 11:23:39;;;;;;;15.13;10.85;;;;;;;13.44;33.11;102047.22;3551759;40;20069;-68
2023/03/02 11:26:21;;;;;;;18.52;10.70;;;;;;;13.68;32.18;102045.00;3549701;40;20436;-69
2023/03/02 11:29:02;;;;;;;15.32;10.18;;;;;;;13.69;31.23;102050.31;3556044;40;20057;-68
2023/03/02 11:31:52;;;;;;;15.68;10.52;;;;;;;13.61;31.93;102047.19;3552855;40;20109;-67
2023/03/02 11:34:28;;;;;;;17.05;10.02;;;;;;;13.59;31.78;102050.91;3552864;40;20066;-67